Time;durP1;ratioP1;P1;durP2;ratioP2;P2;SDS_P1;SDS_P2;PMS_P1;PMS_P2;Temp;Humidity;BMP_temperature;BMP_pressure;BME280_temperature;BME280_humidity;BME280_pressure;Samples;Min_cycle;Max_cycle;Signal;HPM_P1;HPM_P2
2022/10/16 00:01:12;;;;;;;11.45;3.90;;;13.60;99.90;;;;;;5082592;28;20032;-66
2022/10/16 00:03:39;;;;;;;8.80;3.75;;;13.50;99.90;;;;;;5077919;28;20040;-66
2022/10/16 00:06:05;;;;;;;8.73;3.63;;;13.50;99.90;;;;;;5081849;28;20143;-66
2022/10/16 00:08:31;;;;;;;6.80;3.50;;;13.50;99.90;;;;;;5082693;28;20059;-66
2022/10/16 00:11:11;;;;;;;11.85;3.85;;;13.60;99.90;;;;;;5083134;28;20032;-66
2022/10/16 00:13:39;;;;;;;8.82;3.88;;;13.60;99.90;;;;;;5081374;28;20382;-66
2022/10/16 00:16:05;;;;;;;7.47;3.72;;;13.60;99.90;;;;;;5082286;28;20661;-66
2022/10/16 00:18:31;;;;;;;10.93;3.97;;;13.70;99.90;;;;;;5081478;28;20595;-66
2022/10/16 00:21:03;;;;;;;8.90;3.90;;;13.60;99.90;;;;;;5080099;28;20051;-66
2022/10/16 00:23:28;;;;;;;9.32;4.00;;;13.70;99.90;;;;;;5077500;28;20122;-66
2022/10/16 00:25:56;;;;;;;12.80;4.05;;;13.60;99.90;;;;;;5082203;28;20036;-66
2022/10/16 00:28:22;;;;;;;8.93;4.53;;;13.70;99.90;;;;;;5082343;28;20036;-66
2022/10/16 00:30:48;;;;;;;8.07;4.50;;;13.60;99.90;;;;;;5080320;28;20102;-66
2022/10/16 00:33:13;;;;;;;7.95;4.32;;;13.50;99.90;;;;;;5081481;28;20028;-66
2022/10/16 00:35:39;;;;;;;6.18;3.40;;;13.50;99.90;;;;;;5083510;28;20035;-66
2022/10/16 00:38:04;;;;;;;9.50;3.75;;;13.50;99.90;;;;;;5082537;28;20024;-66
2022/10/16 00:40:31;;;;;;;6.53;3.53;;;13.50;99.90;;;;;;5082919;28;20079;-66
2022/10/16 00:42:56;;;;;;;7.88;3.80;;;13.50;99.90;;;;;;5081437;28;20965;-66
2022/10/16 00:45:22;;;;;;;7.53;4.00;;;13.50;99.90;;;;;;5079765;28;20032;-67
2022/10/16 00:47:51;;;;;;;6.05;3.72;;;13.50;99.90;;;;;;5082911;28;20028;-66
2022/10/16 00:50:26;;;;;;;7.50;3.40;;;13.40;99.90;;;;;;5081061;28;20036;-66
2022/10/16 00:52:53;;;;;;;11.95;3.58;;;13.40;99.90;;;;;;5082223;28;20024;-66
2022/10/16 00:55:19;;;;;;;6.13;3.33;;;13.40;99.90;;;;;;5082228;28;20440;-66
2022/10/16 00:57:46;;;;;;;7.43;3.70;;;13.40;99.90;;;;;;5079606;28;20097;-66
2022/10/16 01:00:15;;;;;;;6.50;3.40;;;13.40;99.90;;;;;;5081403;28;20040;-66
2022/10/16 01:02:41;;;;;;;6.30;3.70;;;13.40;99.90;;;;;;5077705;28;20039;-66
2022/10/16 01:05:07;;;;;;;7.22;3.38;;;13.40;99.90;;;;;;5082571;28;20958;-66
2022/10/16 01:07:52;;;;;;;8.32;3.63;;;13.30;99.90;;;;;;5082160;28;20040;-66
2022/10/16 01:10:53;;;;;;;4.93;3.20;;;13.40;99.90;;;;;;5077626;28;20032;-66
2022/10/16 01:13:23;;;;;;;7.57;3.38;;;13.40;99.90;;;;;;5079581;28;20088;-66
2022/10/16 01:16:15;;;;;;;6.72;3.53;;;13.40;99.90;;;;;;5062608;28;20043;-67
2022/10/16 01:18:49;;;;;;;6.43;3.40;;;13.30;99.90;;;;;;5081363;28;20039;-66
2022/10/16 01:21:26;;;;;;;6.15;3.60;;;13.30;99.90;;;;;;5083275;28;20035;-66
2022/10/16 01:24:22;;;;;;;4.45;3.10;;;13.40;99.90;;;;;;5081445;28;20042;-66
2022/10/16 01:27:10;;;;;;;6.63;3.45;;;13.30;99.90;;;;;;5085936;28;20028;-67
2022/10/16 01:29:56;;;;;;;8.70;3.35;;;13.30;99.90;;;;;;5082017;28;20195;-66
2022/10/16 01:32:59;;;;;;;5.13;2.90;;;13.30;99.90;;;;;;5082382;28;20039;-66
2022/10/16 01:35:36;;;;;;;6.03;3.60;;;13.30;99.90;;;;;;5074152;28;20043;-66
2022/10/16 01:38:29;;;;;;;5.55;3.50;;;13.30;99.90;;;;;;5059383;28;20029;-66
2022/10/16 01:41:03;;;;;;;7.38;3.13;;;13.30;99.90;;;;;;5063766;28;20170;-66
2022/10/16 01:43:36;;;;;;;6.78;3.35;;;13.30;99.90;;;;;;5079835;28;20058;-66
2022/10/16 01:46:02;;;;;;;6.25;3.08;;;13.30;99.90;;;;;;5068752;28;20032;-66
2022/10/16 01:48:30;;;;;;;9.40;3.08;;;13.30;99.90;;;;;;5087266;28;20051;-66
2022/10/16 01:51:10;;;;;;;4.05;2.90;;;13.30;99.90;;;;;;5082413;28;20028;-66
2022/10/16 01:53:36;;;;;;;6.40;2.75;;;13.20;99.90;;;;;;5078602;28;20036;-66
2022/10/16 01:56:06;;;;;;;5.47;3.10;;;13.20;99.90;;;;;;5057720;28;20036;-66
2022/10/16 01:58:36;;;;;;;5.53;2.80;;;12.40;99.90;;;;;;5050542;28;20040;-66
2022/10/16 02:01:04;;;;;;;4.80;2.92;;;13.20;99.90;;;;;;5057343;28;20068;-66
2022/10/16 02:03:29;;;;;;;6.50;2.67;;;13.10;99.90;;;;;;5056600;28;20067;-66
2022/10/16 02:05:58;;;;;;;5.90;2.55;;;13.00;99.90;;;;;;5059444;28;20103;-66
2022/10/16 02:08:28;;;;;;;7.57;2.70;;;13.10;99.90;;;;;;5055292;28;20045;-66
2022/10/16 02:10:55;;;;;;;4.38;2.17;;;13.10;99.90;;;;;;5050359;28;20149;-66
2022/10/16 02:13:27;;;;;;;4.68;2.10;;;13.10;99.90;;;;;;5073229;28;20081;-66
2022/10/16 02:15:53;;;;;;;5.35;2.40;;;13.10;99.90;;;;;;5082398;28;20048;-66
2022/10/16 02:18:19;;;;;;;6.75;2.00;;;13.20;99.90;;;;;;5078520;28;20336;-67
2022/10/16 02:20:57;;;;;;;6.95;2.28;;;13.20;99.90;;;;;;5069090;28;20029;-66
2022/10/16 02:23:54;;;;;;;7.18;2.30;;;13.10;99.90;;;;;;5084236;28;20035;-66
2022/10/16 02:26:34;;;;;;;3.83;2.17;;;13.10;99.90;;;;;;5083550;28;20024;-66
2022/10/16 02:29:04;;;;;;;7.18;2.25;;;13.10;99.90;;;;;;5077871;28;20032;-66
2022/10/16 02:31:34;;;;;;;5.78;2.22;;;13.20;99.90;;;;;;5082782;28;20396;-66
2022/10/16 02:34:00;;;;;;;6.10;2.13;;;13.10;99.90;;;;;;5084897;28;20028;-66
2022/10/16 02:36:27;;;;;;;6.07;1.92;;;13.20;99.90;;;;;;5083061;28;20796;-66
2022/10/16 02:38:54;;;;;;;6.53;2.30;;;13.10;99.90;;;;;;5067507;28;20040;-66
2022/10/16 02:41:22;;;;;;;4.30;2.00;;;13.20;99.90;;;;;;5076511;28;20347;-66
2022/10/16 02:43:49;;;;;;;4.45;2.10;;;13.10;99.90;;;;;;5066207;28;20043;-66
2022/10/16 02:46:15;;;;;;;3.95;1.80;;;13.10;99.90;;;;;;5064787;28;20040;-66
2022/10/16 02:48:40;;;;;;;3.17;1.60;;;13.10;99.90;;;;;;5065220;28;20028;-66
2022/10/16 02:51:06;;;;;;;4.97;1.60;;;13.10;99.90;;;;;;5079620;28;20351;-66
2022/10/16 02:53:32;;;;;;;3.40;1.58;;;13.20;99.90;;;;;;5075710;28;20113;-66
2022/10/16 02:55:57;;;;;;;3.05;1.80;;;13.10;99.90;;;;;;5078884;28;20798;-66
2022/10/16 02:58:23;;;;;;;10.38;1.73;;;13.10;99.90;;;;;;5080566;28;20109;-66
2022/10/16 03:00:48;;;;;;;4.80;1.63;;;13.10;99.90;;;;;;5078365;28;20016;-66
2022/10/16 03:03:14;;;;;;;4.68;1.77;;;13.00;99.90;;;;;;5079883;28;20048;-66
2022/10/16 03:05:39;;;;;;;3.72;1.77;;;13.10;99.90;;;;;;5080373;28;20043;-66
2022/10/16 03:08:05;;;;;;;4.32;1.50;;;13.30;99.90;;;;;;5080546;28;20036;-66
2022/10/16 03:10:30;;;;;;;5.05;1.60;;;13.20;99.90;;;;;;5079866;28;20499;-66
2022/10/16 03:12:56;;;;;;;3.50;1.33;;;13.30;99.90;;;;;;5075327;28;20162;-66
2022/10/16 03:15:22;;;;;;;3.13;1.30;;;13.30;99.90;;;;;;5078364;28;20044;-66
2022/10/16 03:17:47;;;;;;;4.43;1.45;;;13.20;99.90;;;;;;5080268;28;20043;-66
2022/10/16 03:20:13;;;;;;;2.50;1.48;;;13.30;99.90;;;;;;5080267;28;20490;-66
2022/10/16 03:22:38;;;;;;;7.25;1.60;;;13.20;99.90;;;;;;5069616;28;20036;-66
2022/10/16 03:25:04;;;;;;;4.65;1.67;;;13.30;99.90;;;;;;5079961;28;20032;-66
2022/10/16 03:27:30;;;;;;;10.63;1.67;;;13.30;99.90;;;;;;5077407;28;20050;-66
2022/10/16 03:29:55;;;;;;;3.83;1.60;;;13.30;99.90;;;;;;5079405;28;20123;-66
2022/10/16 03:32:21;;;;;;;3.90;1.40;;;13.20;99.90;;;;;;5083269;28;20215;-66
2022/10/16 03:34:47;;;;;;;3.67;1.50;;;13.20;99.90;;;;;;5083527;28;20102;-66
2022/10/16 03:37:12;;;;;;;2.90;1.40;;;13.20;99.90;;;;;;5083021;28;20020;-66
2022/10/16 03:39:38;;;;;;;2.95;1.50;;;13.20;99.90;;;;;;5083463;28;20109;-66
2022/10/16 03:42:03;;;;;;;4.50;1.30;;;13.20;99.90;;;;;;5082454;28;20071;-66
2022/10/16 03:44:29;;;;;;;3.25;1.35;;;13.20;99.90;;;;;;5081286;28;20054;-66
2022/10/16 03:46:54;;;;;;;4.93;1.50;;;13.20;99.90;;;;;;5070179;28;20024;-66
2022/10/16 03:49:20;;;;;;;1.77;1.08;;;13.10;99.90;;;;;;5081379;28;20336;-66
2022/10/16 03:51:46;;;;;;;6.18;1.33;;;13.10;99.90;;;;;;5089304;28;20450;-66
2022/10/16 03:54:11;;;;;;;5.35;1.17;;;13.00;99.90;;;;;;5071223;28;20048;-66
2022/10/16 03:56:37;;;;;;;6.57;1.10;;;13.10;99.90;;;;;;5081225;28;20036;-66
2022/10/16 03:59:03;;;;;;;6.93;1.50;;;13.00;99.90;;;;;;5079694;28;20434;-66
2022/10/16 04:01:28;;;;;;;6.72;1.55;;;13.00;99.90;;;;;;5083369;28;20071;-66
2022/10/16 04:03:54;;;;;;;4.28;1.08;;;13.10;99.90;;;;;;5083119;28;20040;-66
2022/10/16 04:06:19;;;;;;;2.65;1.20;;;13.00;99.90;;;;;;5068030;28;20026;-66
2022/10/16 04:08:45;;;;;;;2.92;1.17;;;13.00;99.90;;;;;;5080908;28;20040;-66
2022/10/16 04:11:10;;;;;;;4.90;1.25;;;13.00;99.90;;;;;;5081680;28;20039;-66
2022/10/16 04:13:36;;;;;;;2.15;1.10;;;12.90;99.90;;;;;;5080524;28;20110;-66
2022/10/16 04:16:02;;;;;;;5.80;1.20;;;13.00;99.90;;;;;;5082720;28;20040;-66
2022/10/16 04:18:28;;;;;;;4.03;1.20;;;13.00;99.90;;;;;;5083142;28;20035;-66
2022/10/16 04:20:54;;;;;;;5.75;1.30;;;13.00;99.90;;;;;;5082660;28;20344;-66
2022/10/16 04:23:20;;;;;;;3.38;1.30;;;12.90;99.90;;;;;;5080945;28;20058;-66
2022/10/16 04:25:45;;;;;;;5.43;1.40;;;12.90;99.90;;;;;;5083786;28;20044;-66
2022/10/16 04:28:11;;;;;;;2.42;1.13;;;12.90;99.90;;;;;;5081659;28;20097;-66
2022/10/16 04:30:40;;;;;;;3.47;1.27;;;12.90;99.90;;;;;;5082244;28;20040;-66
2022/10/16 04:33:05;;;;;;;6.97;1.40;;;12.90;99.90;;;;;;5082470;28;20131;-66
2022/10/16 04:35:31;;;;;;;4.05;1.10;;;12.90;99.90;;;;;;5084049;28;20485;-66
2022/10/16 04:37:59;;;;;;;1.90;1.13;;;12.90;99.90;;;;;;5083228;28;20042;-66
2022/10/16 04:40:25;;;;;;;3.13;1.30;;;12.90;99.90;;;;;;5080795;28;20500;-66
2022/10/16 04:42:51;;;;;;;2.20;1.17;;;12.80;99.90;;;;;;5081408;28;20046;-66
2022/10/16 04:45:16;;;;;;;6.75;1.50;;;12.80;99.90;;;;;;5081666;28;20032;-66
2022/10/16 04:47:42;;;;;;;2.78;1.08;;;12.80;99.90;;;;;;5082118;28;20035;-66
2022/10/16 04:50:08;;;;;;;2.05;1.02;;;12.80;99.90;;;;;;5080981;28;20036;-66
2022/10/16 04:52:33;;;;;;;3.60;1.33;;;12.80;99.90;;;;;;5083823;28;20063;-66
2022/10/16 04:55:02;;;;;;;3.05;1.10;;;12.80;99.90;;;;;;5080391;28;20043;-66
2022/10/16 04:57:29;;;;;;;4.05;1.27;;;12.80;99.90;;;;;;5082122;28;20400;-66
2022/10/16 04:59:55;;;;;;;3.10;1.30;;;12.80;99.90;;;;;;5080329;28;20043;-66
2022/10/16 05:02:20;;;;;;;3.00;1.13;;;12.80;99.90;;;;;;5080757;28;20667;-66
2022/10/16 05:04:46;;;;;;;6.03;1.40;;;12.80;99.90;;;;;;5081776;28;20061;-66
2022/10/16 05:07:12;;;;;;;3.63;1.20;;;12.80;99.90;;;;;;5073227;28;20032;-66
2022/10/16 05:09:37;;;;;;;3.20;1.10;;;12.80;99.90;;;;;;5062709;28;20032;-66
2022/10/16 05:12:03;;;;;;;4.63;1.38;;;12.80;99.90;;;;;;5082298;28;20441;-66
2022/10/16 05:14:29;;;;;;;1.98;1.35;;;12.80;99.90;;;;;;5081265;28;20456;-66
2022/10/16 05:16:55;;;;;;;4.75;1.27;;;12.80;99.90;;;;;;5078850;28;20036;-66
2022/10/16 05:19:20;;;;;;;4.53;1.20;;;12.80;99.90;;;;;;5080963;28;20104;-66
2022/10/16 05:21:46;;;;;;;5.53;1.08;;;12.80;99.90;;;;;;5081263;28;20036;-66
2022/10/16 05:24:11;;;;;;;5.22;1.23;;;12.80;99.90;;;;;;5080206;28;20159;-66
2022/10/16 05:26:37;;;;;;;6.30;1.55;;;12.80;99.90;;;;;;5081188;28;20024;-66
2022/10/16 05:29:03;;;;;;;4.00;1.30;;;12.80;99.90;;;;;;5080607;28;20032;-66
2022/10/16 05:31:29;;;;;;;3.25;1.50;;;12.80;99.90;;;;;;5079515;28;20093;-66
2022/10/16 05:34:03;;;;;;;5.22;1.50;;;12.80;99.90;;;;;;5081774;28;20903;-66
2022/10/16 05:36:29;;;;;;;1.85;1.30;;;12.70;99.90;;;;;;5081051;28;20043;-66
2022/10/16 05:38:54;;;;;;;4.32;1.45;;;12.70;99.90;;;;;;5080749;28;20032;-66
2022/10/16 05:41:21;;;;;;;3.58;1.50;;;12.80;99.90;;;;;;5078174;28;20032;-66
2022/10/16 05:43:48;;;;;;;3.00;1.40;;;12.70;99.90;;;;;;5080252;28;20024;-66
2022/10/16 05:46:14;;;;;;;2.28;1.60;;;12.70;99.90;;;;;;5078954;28;20148;-66
2022/10/16 05:48:39;;;;;;;3.25;1.38;;;12.70;99.90;;;;;;5080150;28;20055;-66
2022/10/16 05:51:08;;;;;;;6.07;1.95;;;12.70;99.90;;;;;;5079834;28;20029;-66
2022/10/16 05:53:35;;;;;;;8.00;1.67;;;12.80;99.90;;;;;;5080509;28;20043;-66
2022/10/16 05:56:01;;;;;;;4.82;1.55;;;12.80;99.90;;;;;;5079096;28;20051;-66
2022/10/16 05:58:35;;;;;;;4.85;1.70;;;12.80;99.90;;;;;;5078794;28;20036;-66
2022/10/16 06:01:02;;;;;;;6.68;1.58;;;12.70;99.90;;;;;;5076001;28;20056;-66
2022/10/16 06:03:28;;;;;;;3.20;1.67;;;12.70;99.90;;;;;;5081803;28;20035;-66
2022/10/16 06:05:53;;;;;;;2.70;1.60;;;12.70;99.90;;;;;;5079354;28;20369;-66
2022/10/16 06:08:22;;;;;;;4.57;1.40;;;12.60;99.90;;;;;;5062970;28;20769;-66
2022/10/16 06:10:47;;;;;;;3.72;2.00;;;12.60;99.90;;;;;;5067898;28;20039;-66
2022/10/16 06:13:14;;;;;;;3.28;1.80;;;12.60;99.90;;;;;;5080769;28;20036;-66
2022/10/16 06:15:41;;;;;;;5.70;1.90;;;12.60;99.90;;;;;;5059287;28;20043;-66
2022/10/16 06:18:10;;;;;;;5.30;1.70;;;12.60;99.90;;;;;;5080659;28;20982;-66
2022/10/16 06:20:36;;;;;;;3.80;2.10;;;12.70;99.90;;;;;;5062403;28;20028;-66
2022/10/16 06:23:03;;;;;;;2.78;1.90;;;12.70;99.90;;;;;;5060597;28;20048;-66
2022/10/16 06:25:30;;;;;;;5.25;2.33;;;12.70;99.90;;;;;;5074179;28;20688;-66
2022/10/16 06:27:55;;;;;;;4.25;2.05;;;12.70;99.90;;;;;;5062977;28;20040;-66
2022/10/16 06:30:21;;;;;;;4.70;2.28;;;12.70;99.90;;;;;;5076475;28;20122;-66
2022/10/16 06:32:46;;;;;;;15.65;4.25;;;12.80;99.90;;;;;;5066856;28;20032;-66
2022/10/16 06:35:12;;;;;;;4.60;2.30;;;13.00;99.90;;;;;;5081332;28;20032;-66
2022/10/16 06:37:38;;;;;;;3.72;2.10;;;13.00;99.90;;;;;;5065577;28;20039;-66
2022/10/16 06:40:04;;;;;;;4.15;2.10;;;12.90;99.90;;;;;;5077979;28;20036;-66
2022/10/16 06:42:29;;;;;;;2.28;2.05;;;12.90;99.90;;;;;;5078773;28;20113;-66
2022/10/16 06:44:55;;;;;;;3.78;2.08;;;12.80;99.90;;;;;;5078770;28;20651;-66
2022/10/16 06:47:21;;;;;;;8.98;2.50;;;13.00;99.90;;;;;;5078022;28;20036;-66
2022/10/16 06:49:46;;;;;;;9.18;2.78;;;13.00;99.90;;;;;;5080096;28;20047;-66
2022/10/16 06:52:12;;;;;;;3.85;2.38;;;13.00;99.90;;;;;;5080311;28;20034;-66
2022/10/16 06:54:37;;;;;;;5.82;2.50;;;13.00;99.90;;;;;;5079143;28;20060;-66
2022/10/16 06:57:03;;;;;;;6.82;2.88;;;13.10;99.90;;;;;;5074763;28;20042;-65
2022/10/16 06:59:28;;;;;;;5.13;2.20;;;13.00;99.90;;;;;;5061814;28;20038;-64
2022/10/16 07:01:54;;;;;;;4.88;2.72;;;13.00;99.90;;;;;;5059329;28;20035;-64
2022/10/16 07:04:19;;;;;;;6.47;2.20;;;13.00;99.90;;;;;;5076425;28;20399;-65
2022/10/16 07:06:45;;;;;;;4.35;2.40;;;13.10;99.90;;;;;;5064945;28;20566;-65
2022/10/16 07:09:11;;;;;;;5.65;2.70;;;12.90;99.90;;;;;;5077433;28;20038;-65
2022/10/16 07:11:39;;;;;;;6.63;2.67;;;12.90;99.90;;;;;;5082827;28;20048;-65
2022/10/16 07:14:08;;;;;;;4.85;2.70;;;13.00;99.90;;;;;;5064177;28;20102;-65
2022/10/16 07:16:34;;;;;;;3.85;2.53;;;13.00;99.90;;;;;;5078371;28;20032;-64
2022/10/16 07:19:02;;;;;;;7.53;3.25;;;13.00;99.90;;;;;;5081038;28;20051;-65
2022/10/16 07:21:30;;;;;;;4.72;2.80;;;13.00;99.90;;;;;;5080872;28;20056;-66
2022/10/16 07:23:58;;;;;;;7.40;3.10;;;13.10;99.90;;;;;;5078244;28;20034;-65
2022/10/16 07:26:24;;;;;;;3.00;2.53;;;13.00;99.90;;;;;;5081829;28;20815;-65
2022/10/16 07:28:50;;;;;;;6.40;3.20;;;13.00;99.90;;;;;;5066352;28;20146;-64
2022/10/16 07:31:19;;;;;;;5.78;2.67;;;13.10;99.90;;;;;;5077156;28;20154;-61
2022/10/16 07:33:47;;;;;;;5.53;2.95;;;13.20;99.90;;;;;;5082415;28;20072;-61
2022/10/16 07:36:14;;;;;;;4.68;3.10;;;13.30;99.90;;;;;;5080539;28;20463;-62
2022/10/16 07:38:42;;;;;;;6.68;3.05;;;13.40;99.90;;;;;;5082133;28;20040;-62
2022/10/16 07:41:10;;;;;;;5.90;2.97;;;13.50;99.90;;;;;;5067263;28;20024;-61
2022/10/16 07:43:36;;;;;;;3.40;3.05;;;13.60;99.90;;;;;;5074875;28;20044;-61
2022/10/16 07:46:02;;;;;;;4.55;2.60;;;13.70;99.90;;;;;;5078179;28;20039;-65
2022/10/16 07:48:30;;;;;;;4.85;2.72;;;13.80;99.90;;;;;;5079543;28;20036;-65
2022/10/16 07:51:00;;;;;;;5.82;3.17;;;13.80;99.90;;;;;;5065119;28;20065;-64
2022/10/16 07:53:26;;;;;;;4.43;2.92;;;13.90;99.90;;;;;;5082108;28;20024;-65
2022/10/16 07:55:56;;;;;;;6.50;2.83;;;14.00;99.90;;;;;;5082284;28;20115;-65
2022/10/16 07:58:21;;;;;;;8.32;3.53;;;14.10;99.90;;;;;;5080195;28;20055;-64
2022/10/16 08:00:47;;;;;;;5.10;3.25;;;14.20;99.90;;;;;;5081319;28;20965;-65
2022/10/16 08:03:12;;;;;;;6.72;3.33;;;14.30;99.90;;;;;;5081791;28;20068;-64
2022/10/16 08:05:38;;;;;;;6.95;2.80;;;;;;;;;;5083660;28;20040;-65
2022/10/16 08:08:04;;;;;;;3.22;2.63;;;14.40;99.90;;;;;;5068479;28;20036;-65
2022/10/16 08:10:31;;;;;;;4.63;2.70;;;14.50;99.90;;;;;;5082134;28;20032;-65
2022/10/16 08:12:57;;;;;;;6.18;2.85;;;14.50;99.90;;;;;;5080940;28;20626;-65
2022/10/16 08:15:22;;;;;;;10.25;2.42;;;14.50;99.90;;;;;;5062071;28;20078;-65
2022/10/16 08:17:58;;;;;;;8.95;2.80;;;14.50;99.90;;;;;;5081257;28;20058;-65
2022/10/16 08:20:25;;;;;;;5.03;2.80;;;14.60;99.90;;;;;;5066951;28;20043;-65
2022/10/16 08:22:50;;;;;;;3.67;2.60;;;14.70;99.90;;;;;;5080290;28;20059;-64
2022/10/16 08:25:16;;;;;;;3.03;2.15;;;14.70;99.90;;;;;;5082269;28;20036;-65
2022/10/16 08:27:41;;;;;;;4.88;2.30;;;14.80;99.90;;;;;;5078462;28;20498;-64
2022/10/16 08:30:08;;;;;;;6.57;2.15;;;14.80;99.90;;;;;;5080812;28;20067;-65
2022/10/16 08:32:33;;;;;;;8.35;2.30;;;14.80;99.90;;;;;;5082848;28;20043;-64
2022/10/16 08:34:59;;;;;;;3.97;2.28;;;14.90;99.90;;;;;;5080002;28;20040;-64
2022/10/16 08:37:25;;;;;;;3.60;1.92;;;14.90;99.90;;;;;;5080985;28;20120;-65
2022/10/16 08:39:50;;;;;;;3.10;1.75;;;14.90;99.90;;;;;;5082013;28;20120;-65
2022/10/16 08:42:35;;;;;;;4.32;1.80;;;15.00;99.90;;;;;;5081914;28;20043;-65
2022/10/16 08:45:26;;;;;;;4.43;1.70;;;15.10;99.90;;;;;;5078602;28;20151;-64
2022/10/16 08:48:08;;;;;;;5.32;1.90;;;15.10;99.90;;;;;;5080172;28;20043;-64
2022/10/16 08:50:38;;;;;;;2.72;1.75;;;15.20;99.90;;;;;;5081369;28;20028;-64
2022/10/16 08:53:06;;;;;;;5.68;1.90;;;15.30;99.90;;;;;;5080371;28;20080;-64
2022/10/16 08:55:52;;;;;;;6.80;1.77;;;15.30;99.90;;;;;;5082191;28;20052;-65
2022/10/16 08:58:28;;;;;;;4.45;1.65;;;15.40;99.90;;;;;;5080627;28;20340;-64
2022/10/16 09:00:59;;;;;;;2.08;1.42;;;15.40;99.90;;;;;;5067404;28;20147;-64
2022/10/16 09:03:52;;;;;;;3.67;1.60;;;15.40;99.90;;;;;;5064649;28;20036;-64
2022/10/16 09:06:40;;;;;;;3.90;1.65;;;15.50;99.90;;;;;;5079562;28;20143;-64
2022/10/16 09:09:13;;;;;;;3.53;1.60;;;15.60;99.90;;;;;;5036292;28;20397;-65
2022/10/16 09:11:48;;;;;;;7.10;1.55;;;15.60;99.90;;;;;;5077537;28;20086;-65
2022/10/16 09:14:25;;;;;;;6.32;1.50;;;15.70;99.90;;;;;;5073983;28;20331;-64
2022/10/16 09:17:03;;;;;;;5.63;2.05;;;15.70;99.90;;;;;;5064944;28;20059;-65
2022/10/16 09:19:44;;;;;;;4.65;1.40;;;15.80;99.90;;;;;;5080248;28;20955;-64
2022/10/16 09:22:16;;;;;;;7.13;1.45;;;15.80;99.90;;;;;;5074995;28;20039;-65
2022/10/16 09:24:42;;;;;;;2.93;1.70;;;15.80;99.90;;;;;;5079296;28;20064;-64
2022/10/16 09:27:11;;;;;;;7.68;1.70;;;15.80;99.90;;;;;;5063850;28;20127;-64
2022/10/16 09:29:37;;;;;;;4.78;1.40;;;15.90;99.90;;;;;;5072120;28;20064;-65
2022/10/16 09:32:14;;;;;;;3.95;1.70;;;15.80;99.90;;;;;;5080232;28;20055;-65
2022/10/16 09:34:47;;;;;;;5.30;1.40;;;15.90;99.90;;;;;;5079045;28;20042;-65
2022/10/16 09:37:15;;;;;;;7.93;1.50;;;16.00;99.90;;;;;;5059613;28;20118;-65
2022/10/16 09:39:52;;;;;;;3.83;1.20;;;16.00;99.90;;;;;;5076801;28;20499;-64
2022/10/16 09:42:26;;;;;;;5.07;1.40;;;16.00;99.90;;;;;;5059105;28;20028;-63
2022/10/16 09:44:53;;;;;;;4.75;1.40;;;16.00;99.90;;;;;;5076128;28;20123;-63
2022/10/16 09:47:23;;;;;;;3.72;1.17;;;16.10;99.90;;;;;;5081060;28;20032;-63
2022/10/16 09:49:54;;;;;;;3.88;1.20;;;16.10;99.90;;;;;;5079874;28;20032;-64
2022/10/16 09:52:22;;;;;;;3.95;1.50;;;16.10;99.90;;;;;;5079941;28;20494;-64
2022/10/16 09:55:12;;;;;;;6.15;1.50;;;16.10;99.90;;;;;;5066221;28;20028;-63
2022/10/16 09:57:48;;;;;;;5.85;1.38;;;16.20;99.90;;;;;;5077170;28;20032;-64
2022/10/16 10:00:17;;;;;;;4.25;1.40;;;16.20;99.90;;;;;;5074996;28;20032;-64
2022/10/16 10:02:43;;;;;;;4.80;1.30;;;16.30;99.90;;;;;;5078792;28;20695;-63
2022/10/16 10:05:24;;;;;;;3.78;1.05;;;16.30;99.90;;;;;;5078965;28;20116;-64
2022/10/16 10:07:59;;;;;;;3.92;1.20;;;16.30;99.90;;;;;;5078447;28;20032;-63
2022/10/16 10:10:28;;;;;;;2.33;1.00;;;16.30;99.90;;;;;;5080462;28;20032;-64
2022/10/16 10:12:55;;;;;;;4.97;1.35;;;16.40;99.90;;;;;;5078860;28;20039;-63
2022/10/16 10:15:23;;;;;;;4.97;1.40;;;16.40;99.90;;;;;;5075066;28;20035;-65
2022/10/16 10:17:57;;;;;;;5.95;1.48;;;16.50;99.90;;;;;;5079270;28;20063;-63
2022/10/16 10:20:32;;;;;;;3.85;1.00;;;16.50;99.90;;;;;;5078115;28;20399;-64
2022/10/16 10:22:58;;;;;;;4.43;1.25;;;16.50;99.90;;;;;;5079322;28;20036;-63
2022/10/16 10:25:52;;;;;;;5.25;1.17;;;16.40;99.90;;;;;;5076902;28;20028;-61
2022/10/16 10:28:21;;;;;;;;;;;16.50;99.90;;;;;;5077812;28;20039;-62
2022/10/16 10:31:01;;;;;;;4.13;1.25;;;16.50;99.90;;;;;;5079876;28;19977;-64
2022/10/16 10:33:56;;;;;;;7.00;1.40;;;16.50;99.90;;;;;;5063905;28;20147;-64
2022/10/16 10:36:27;;;;;;;4.28;1.10;;;16.50;99.90;;;;;;5073739;28;20507;-63
2022/10/16 10:39:19;;;;;;;3.60;1.13;;;16.50;99.90;;;;;;5080448;28;20635;-63
2022/10/16 10:42:04;;;;;;;3.90;1.23;;;16.60;99.90;;;;;;5077370;28;20059;-63
2022/10/16 10:44:56;;;;;;;4.82;1.00;;;16.50;99.90;;;;;;5073227;28;20048;-63
2022/10/16 10:47:45;;;;;;;3.13;0.80;;;16.60;99.90;;;;;;5079098;28;20036;-63
2022/10/16 10:50:35;;;;;;;5.63;1.20;;;16.50;99.90;;;;;;5063876;28;20510;-64
2022/10/16 10:53:24;;;;;;;3.47;1.30;;;16.60;99.90;;;;;;5079259;28;20113;-63
2022/10/16 10:56:05;;;;;;;5.40;1.10;;;16.60;99.90;;;;;;5060742;28;20454;-63
2022/10/16 10:58:49;;;;;;;2.28;1.05;;;16.80;99.90;;;;;;5078947;28;20039;-64
2022/10/16 11:01:19;;;;;;;3.72;1.30;;;16.80;99.90;;;;;;5077438;28;20059;-63
2022/10/16 11:03:57;;;;;;;3.42;1.05;;;16.90;99.90;;;;;;5079671;28;20089;-64
2022/10/16 11:06:45;;;;;;;4.28;1.05;;;16.80;99.90;;;;;;5079951;28;20032;-63
2022/10/16 11:09:21;;;;;;;5.35;1.20;;;16.80;99.90;;;;;;5082710;28;20089;-63
2022/10/16 11:11:58;;;;;;;3.13;0.90;;;16.80;99.90;;;;;;5077898;28;20098;-62
2022/10/16 11:14:30;;;;;;;3.50;0.93;;;16.80;99.90;;;;;;5076787;28;20035;-63
2022/10/16 11:17:11;;;;;;;3.95;1.00;;;16.80;99.90;;;;;;5075439;28;20036;-63
2022/10/16 11:19:47;;;;;;;4.95;1.20;;;16.90;99.90;;;;;;5078483;28;20077;-62
2022/10/16 11:22:29;;;;;;;5.53;1.40;;;16.90;99.90;;;;;;5078460;28;20118;-64
2022/10/16 11:25:04;;;;;;;2.88;0.93;;;16.90;99.90;;;;;;5076929;28;20493;-63
2022/10/16 11:27:40;;;;;;;4.40;1.23;;;16.90;99.90;;;;;;5075589;28;20044;-64
2022/10/16 11:30:15;;;;;;;2.50;0.90;;;16.90;99.90;;;;;;5060237;28;20020;-63
2022/10/16 11:33:02;;;;;;;2.97;0.93;;;17.00;99.90;;;;;;5063613;28;20044;-63
2022/10/16 11:35:44;;;;;;;4.43;1.15;;;17.00;99.90;;;;;;5077177;28;20016;-63
2022/10/16 11:38:17;;;;;;;3.15;1.17;;;17.00;99.90;;;;;;5063294;28;20097;-62
2022/10/16 11:40:47;;;;;;;6.97;1.08;;;17.00;99.90;;;;;;5079229;28;20515;-63
2022/10/16 11:43:46;;;;;;;3.03;1.00;;;17.00;99.90;;;;;;5064744;28;20064;-63
2022/10/16 11:46:17;;;;;;;4.40;1.20;;;17.10;99.90;;;;;;5054260;28;20380;-63
2022/10/16 11:48:57;;;;;;;2.30;0.95;;;17.20;99.90;;;;;;5078816;28;20047;-63
2022/10/16 11:51:40;;;;;;;2.60;0.98;;;17.10;99.90;;;;;;5079382;28;20036;-62
2022/10/16 11:54:24;;;;;;;1.70;1.10;;;17.10;99.90;;;;;;5082701;28;20028;-63
2022/10/16 11:56:54;;;;;;;1.98;0.90;;;17.20;99.90;;;;;;5084557;28;20036;-63
2022/10/16 11:59:42;;;;;;;3.13;1.00;;;17.20;99.90;;;;;;5082139;28;20498;-63
2022/10/16 12:02:45;;;;;;;3.75;2.05;;;17.20;99.90;;;;;;5082131;28;20510;-63
2022/10/16 12:05:35;;;;;;;8.52;1.35;;;17.20;99.90;;;;;;5076205;28;20102;-63
2022/10/16 12:08:10;;;;;;;2.83;1.17;;;17.20;99.90;;;;;;5061911;28;20033;-62
2022/10/16 12:10:38;;;;;;;4.00;1.20;;;17.30;99.90;;;;;;5069995;28;20107;-63
2022/10/16 12:13:35;;;;;;;3.60;1.05;;;17.40;99.90;;;;;;5082751;28;20025;-63
2022/10/16 12:16:27;;;;;;;4.13;1.23;;;17.30;99.90;;;;;;5061954;28;20227;-63
2022/10/16 12:19:10;;;;;;;4.75;1.05;;;17.40;99.90;;;;;;5077297;28;20376;-62
2022/10/16 12:21:35;;;;;;;4.45;1.20;;;17.40;99.90;;;;;;5080524;28;20035;-62
2022/10/16 12:24:06;;;;;;;6.93;1.10;;;17.30;99.90;;;;;;5081893;28;20028;-63
2022/10/16 12:26:37;;;;;;;5.22;1.10;;;17.30;99.90;;;;;;5081425;28;20039;-63
2022/10/16 12:29:22;;;;;;;6.75;1.30;;;17.30;99.90;;;;;;5081098;28;20029;-63
2022/10/16 12:31:49;;;;;;;3.55;0.98;;;17.30;99.90;;;;;;5066793;28;20121;-64
2022/10/16 12:34:37;;;;;;;2.72;1.10;;;17.40;99.90;;;;;;5081991;28;20131;-62
2022/10/16 12:37:18;;;;;;;4.18;1.27;;;17.40;99.90;;;;;;5061145;28;20044;-62
2022/10/16 12:39:44;;;;;;;5.63;1.15;;;17.50;99.90;;;;;;5065583;28;20040;-63
2022/10/16 12:42:27;;;;;;;4.00;1.30;;;17.50;99.90;;;;;;5083565;28;20031;-62
2022/10/16 12:44:54;;;;;;;2.53;0.98;;;17.60;99.90;;;;;;5081480;28;20121;-62
2022/10/16 12:47:29;;;;;;;6.70;1.25;;;17.60;99.90;;;;;;5063966;28;20056;-63
2022/10/16 12:49:55;;;;;;;3.90;1.02;;;17.50;99.90;;;;;;5078211;28;20032;-63
2022/10/16 12:52:36;;;;;;;3.55;1.10;;;17.60;99.90;;;;;;5065312;28;20035;-63
2022/10/16 12:55:04;;;;;;;3.97;1.38;;;17.50;99.90;;;;;;5080181;28;20162;-63
2022/10/16 12:57:42;;;;;;;10.15;1.73;;;17.50;99.90;;;;;;5080599;28;20051;-63
2022/10/16 13:00:28;;;;;;;5.82;1.52;;;17.50;99.90;;;;;;5080765;28;20119;-63
2022/10/16 13:03:24;;;;;;;4.20;1.20;;;17.50;99.90;;;;;;5080718;28;20691;-62
2022/10/16 13:06:11;;;;;;;3.45;1.10;;;17.30;99.90;;;;;;5057974;28;20612;-63
2022/10/16 13:09:05;;;;;;;2.92;0.98;;;17.30;99.90;;;;;;5059979;28;20115;-63